createdAt,value
2018-03-11T00:01:02.015Z,8.00
2018-03-11T00:03:29.005Z,8.57
2018-03-11T00:05:55.966Z,8.30
2018-03-11T00:08:23.009Z,7.23
2018-03-11T00:10:49.840Z,7.73
2018-03-11T00:13:16.081Z,8.20
2018-03-11T00:15:42.329Z,7.43
2018-03-11T00:18:09.317Z,9.37
2018-03-11T00:20:36.104Z,8.07
2018-03-11T00:23:02.173Z,8.40
2018-03-11T00:25:28.213Z,9.23
2018-03-11T00:27:54.379Z,8.87
2018-03-11T00:30:20.613Z,9.00
2018-03-11T00:32:47.925Z,10.07
2018-03-11T00:35:14.048Z,9.70
2018-03-11T00:37:40.821Z,9.70
2018-03-11T00:40:06.986Z,9.70
2018-03-11T00:42:33.061Z,9.23
2018-03-11T00:44:59.285Z,10.57
2018-03-11T00:47:26.257Z,9.40
2018-03-11T00:49:53.105Z,10.10
2018-03-11T00:52:19.164Z,9.40
2018-03-11T00:54:45.203Z,9.67
2018-03-11T00:57:11.252Z,9.97
2018-03-11T00:59:38.241Z,9.93
2018-03-11T01:02:04.292Z,9.30
2018-03-11T01:04:30.524Z,10.27
2018-03-11T01:06:56.789Z,9.57
2018-03-11T01:09:23.033Z,11.17
2018-03-11T01:11:49.246Z,9.43
2018-03-11T01:14:15.468Z,10.47
2018-03-11T01:16:41.712Z,10.10
2018-03-11T01:19:07.956Z,10.07
2018-03-11T01:21:34.161Z,8.93
2018-03-11T01:24:00.407Z,10.00
2018-03-11T01:26:26.637Z,9.97
2018-03-11T01:28:52.898Z,9.97
2018-03-11T01:31:19.101Z,9.50
2018-03-11T01:33:45.314Z,10.87
2018-03-11T01:36:11.562Z,9.30
2018-03-11T01:38:38.570Z,10.20
2018-03-11T01:41:04.833Z,9.43
2018-03-11T01:43:31.977Z,10.47
2018-03-11T01:45:58.418Z,10.83
2018-03-11T01:48:24.650Z,11.27
2018-03-11T01:50:51.602Z,13.07
2018-03-11T01:53:17.871Z,10.20
2018-03-11T01:55:44.108Z,10.43
2018-03-11T01:58:10.324Z,10.53
2018-03-11T02:00:36.596Z,11.10
2018-03-11T02:03:02.817Z,9.60
2018-03-11T02:05:29.065Z,12.03
2018-03-11T02:07:55.272Z,11.57
2018-03-11T02:10:22.325Z,12.20
2018-03-11T02:12:49.293Z,12.33
2018-03-11T02:15:16.267Z,12.10
2018-03-11T02:17:42.501Z,12.50
2018-03-11T02:20:08.746Z,12.97
2018-03-11T02:22:34.941Z,12.57
2018-03-11T02:25:01.845Z,13.30
2018-03-11T02:27:28.081Z,12.80
2018-03-11T02:29:54.321Z,12.40
2018-03-11T02:32:20.514Z,17.03
2018-03-11T02:34:46.754Z,13.53
2018-03-11T02:37:13.004Z,12.83
2018-03-11T02:39:39.241Z,13.70
2018-03-11T02:42:05.520Z,14.70
2018-03-11T02:44:32.480Z,13.53
2018-03-11T02:46:59.469Z,14.97
2018-03-11T02:49:25.727Z,14.27
2018-03-11T02:51:51.994Z,14.47
2018-03-11T02:54:18.981Z,14.53
2018-03-11T02:56:45.992Z,15.30
2018-03-11T02:59:12.608Z,16.97
2018-03-11T03:01:38.850Z,15.53
2018-03-11T03:04:05.089Z,13.03
2018-03-11T03:06:31.305Z,15.93
2018-03-11T03:08:57.530Z,16.47
2018-03-11T03:11:23.793Z,14.40
2018-03-11T03:13:50.877Z,15.43
2018-03-11T03:16:17.122Z,18.33
2018-03-11T03:18:43.347Z,13.73
2018-03-11T03:21:09.577Z,13.73
2018-03-11T03:23:35.828Z,17.57
2018-03-11T03:26:02.049Z,14.33
2018-03-11T03:28:29.033Z,13.90
2018-03-11T03:30:56.060Z,15.37
2018-03-11T03:33:23.037Z,14.17
2018-03-11T03:35:49.285Z,14.00
2018-03-11T03:38:16.225Z,16.70
2018-03-11T03:40:43.573Z,18.00
2018-03-11T03:43:09.781Z,15.33
2018-03-11T03:45:36.010Z,16.50
2018-03-11T03:48:02.239Z,16.27
2018-03-11T03:50:28.526Z,17.63
2018-03-11T03:52:54.753Z,17.03
2018-03-11T03:55:23.086Z,17.33
2018-03-11T03:57:49.135Z,16.40
2018-03-11T04:00:15.173Z,17.40
2018-03-11T04:02:41.457Z,16.83
2018-03-11T04:05:07.661Z,16.37
2018-03-11T04:07:34.604Z,16.97
2018-03-11T04:10:01.915Z,15.50
2018-03-11T04:12:28.009Z,14.40
2018-03-11T04:14:54.269Z,14.67
2018-03-11T04:17:20.515Z,16.47
2018-03-11T04:19:46.734Z,15.50
2018-03-11T04:22:12.992Z,15.37
2018-03-11T04:24:39.212Z,15.70
2018-03-11T04:27:05.456Z,16.60
2018-03-11T04:29:32.404Z,15.20
2018-03-11T04:31:59.382Z,16.80
2018-03-11T04:34:25.404Z,16.27
2018-03-11T04:36:52.637Z,15.23
2018-03-11T04:39:18.888Z,14.97
2018-03-11T04:41:45.128Z,17.87
2018-03-11T04:44:11.349Z,15.00
2018-03-11T04:46:38.415Z,16.30
2018-03-11T04:49:04.658Z,15.13
2018-03-11T04:51:30.894Z,18.93
2018-03-11T04:53:57.131Z,16.10
2018-03-11T04:56:23.362Z,15.07
2018-03-11T04:58:49.642Z,17.27
2018-03-11T05:01:15.850Z,16.03
2018-03-11T05:03:42.105Z,16.57
2018-03-11T05:06:08.331Z,15.03
2018-03-11T05:08:34.558Z,16.27
2018-03-11T05:11:00.778Z,15.00
2018-03-11T05:13:27.018Z,16.20
2018-03-11T05:15:53.264Z,16.20
2018-03-11T05:18:19.506Z,15.30
2018-03-11T05:20:45.756Z,18.20
2018-03-11T05:23:11.999Z,18.00
2018-03-11T05:25:38.286Z,18.40
2018-03-11T05:28:05.266Z,17.70
2018-03-11T05:30:31.506Z,17.40
2018-03-11T05:33:01.077Z,17.60
2018-03-11T05:35:28.083Z,16.87
2018-03-11T05:37:54.324Z,17.70
2018-03-11T05:40:20.557Z,16.10
2018-03-11T05:42:46.863Z,22.10
2018-03-11T05:45:13.090Z,18.43
2018-03-11T05:47:39.615Z,18.00
2018-03-11T05:50:05.868Z,20.93
2018-03-11T05:52:32.065Z,20.37
2018-03-11T05:54:58.291Z,18.40
2018-03-11T05:57:25.268Z,18.60
2018-03-11T05:59:51.745Z,20.60
2018-03-11T06:02:18.005Z,19.43
2018-03-11T06:04:44.218Z,20.20
2018-03-11T06:07:12.013Z,17.20
2018-03-11T06:09:38.340Z,19.53
2018-03-11T06:12:04.602Z,18.53
2018-03-11T06:14:30.830Z,18.00
2018-03-11T06:16:57.052Z,17.57
2018-03-11T06:19:23.292Z,18.80
2018-03-11T06:21:49.557Z,18.60
2018-03-11T06:24:15.790Z,18.57
2018-03-11T06:26:42.060Z,16.80
2018-03-11T06:29:08.300Z,17.70
2018-03-11T06:31:35.954Z,15.90
2018-03-11T06:34:02.214Z,17.30
2018-03-11T06:36:28.433Z,15.63
2018-03-11T06:38:54.713Z,16.63
2018-03-11T06:41:20.926Z,15.07
2018-03-11T06:43:47.213Z,15.30
2018-03-11T06:46:13.414Z,14.87
2018-03-11T06:48:39.669Z,16.53
2018-03-11T06:51:05.890Z,15.10
2018-03-11T06:53:32.132Z,13.70
2018-03-11T06:55:58.378Z,13.87
2018-03-11T06:58:24.599Z,15.60
2018-03-11T07:00:50.836Z,12.97
2018-03-11T07:03:17.117Z,13.50
2018-03-11T07:05:43.380Z,11.97
2018-03-11T07:08:10.365Z,11.43
2018-03-11T07:10:36.625Z,10.37
2018-03-11T07:13:02.882Z,11.03
2018-03-11T07:15:32.845Z,10.63
2018-03-11T07:17:59.808Z,9.73
2018-03-11T07:20:26.780Z,10.40
2018-03-11T07:22:52.886Z,9.90
2018-03-11T07:25:19.126Z,10.40
2018-03-11T07:27:46.148Z,9.90
2018-03-11T07:30:12.418Z,9.50
2018-03-11T07:32:38.709Z,10.23
2018-03-11T07:35:04.965Z,8.87
2018-03-11T07:37:33.813Z,8.60
2018-03-11T07:40:00.816Z,10.60
2018-03-11T07:42:26.859Z,8.40
2018-03-11T07:44:53.101Z,9.03
2018-03-11T07:47:19.329Z,9.07
2018-03-11T07:49:47.149Z,9.23
2018-03-11T07:52:13.185Z,8.10
2018-03-11T07:54:39.253Z,8.40
2018-03-11T07:57:05.464Z,7.03
2018-03-11T07:59:31.726Z,7.83
2018-03-11T08:01:58.761Z,8.03
2018-03-11T08:04:26.945Z,8.23
2018-03-11T08:06:53.204Z,8.00
2018-03-11T08:09:19.442Z,7.00
2018-03-11T08:11:45.670Z,7.13
2018-03-11T08:14:12.240Z,8.03
2018-03-11T08:16:39.015Z,7.87
2018-03-11T08:19:05.557Z,8.40
2018-03-11T08:21:33.717Z,7.20
2018-03-11T08:23:59.942Z,7.00
2018-03-11T08:26:26.185Z,6.50
2018-03-11T08:28:53.161Z,7.40
2018-03-11T08:31:19.394Z,6.23
2018-03-11T08:33:45.841Z,6.83
2018-03-11T08:36:12.069Z,6.30
2018-03-11T08:38:38.403Z,6.30
2018-03-11T08:41:04.643Z,7.10
2018-03-11T08:43:30.901Z,7.17
2018-03-11T08:45:57.142Z,7.10
2018-03-11T08:48:23.436Z,6.07
2018-03-11T08:50:50.401Z,6.47
2018-03-11T08:53:16.654Z,6.97
2018-03-11T08:55:42.917Z,5.80
2018-03-11T08:58:09.174Z,6.50
2018-03-11T09:00:36.205Z,6.30
2018-03-11T09:03:02.478Z,6.93
2018-03-11T09:05:28.697Z,5.67
2018-03-11T09:07:55.152Z,5.70
2018-03-11T09:10:21.401Z,5.03
2018-03-11T09:12:47.601Z,5.00
2018-03-11T09:15:13.833Z,6.20
2018-03-11T09:17:40.082Z,3.00
2018-03-11T09:20:06.319Z,3.13
2018-03-11T09:22:32.662Z,2.53
2018-03-11T09:24:58.939Z,2.60
2018-03-11T09:27:25.215Z,3.43
2018-03-11T09:29:52.194Z,2.90
2018-03-11T09:32:18.428Z,2.67
2018-03-11T09:34:44.677Z,2.70
2018-03-11T09:37:10.906Z,3.10
2018-03-11T09:39:37.162Z,2.50
2018-03-11T09:42:04.757Z,2.83
2018-03-11T09:44:32.161Z,3.60
2018-03-11T09:46:58.546Z,3.20
2018-03-11T09:49:24.784Z,4.50
2018-03-11T09:51:51.821Z,2.77
2018-03-11T09:54:18.066Z,2.90
2018-03-11T09:56:44.372Z,3.63
2018-03-11T09:59:10.574Z,3.10
2018-03-11T10:01:37.539Z,4.20
2018-03-11T10:04:03.982Z,3.80
2018-03-11T10:06:30.631Z,3.13
2018-03-11T10:08:56.865Z,3.07
2018-03-11T10:11:23.093Z,3.27
2018-03-11T10:13:49.337Z,3.07
2018-03-11T10:16:15.720Z,3.50
2018-03-11T10:18:41.962Z,3.30
2018-03-11T10:21:08.263Z,3.27
2018-03-11T10:23:35.263Z,3.87
2018-03-11T10:26:01.528Z,2.90
2018-03-11T10:28:28.533Z,3.37
2018-03-11T10:30:57.545Z,3.30
2018-03-11T10:33:23.762Z,3.73
2018-03-11T10:35:50.600Z,2.77
2018-03-11T10:38:16.926Z,3.57
2018-03-11T10:40:43.145Z,3.27
2018-03-11T10:43:09.446Z,2.43
2018-03-11T10:45:35.709Z,2.40
2018-03-11T10:48:01.957Z,2.73
2018-03-11T10:50:31.393Z,2.50
2018-03-11T10:52:58.385Z,2.60
2018-03-11T10:55:25.371Z,2.50
2018-03-11T10:57:52.697Z,2.30
2018-03-11T11:00:19.727Z,2.33
2018-03-11T11:02:45.989Z,3.40
2018-03-11T11:05:15.600Z,2.63
2018-03-11T11:07:41.853Z,2.70
2018-03-11T11:10:08.088Z,2.37
2018-03-11T11:12:34.328Z,5.13
2018-03-11T11:15:00.558Z,3.07
2018-03-11T11:17:26.828Z,2.30
2018-03-11T11:19:53.050Z,3.10
2018-03-11T11:22:23.441Z,2.30
2018-03-11T11:24:50.429Z,2.60
2018-03-11T11:27:16.661Z,2.73
2018-03-11T11:29:42.977Z,2.63
2018-03-11T11:32:09.214Z,2.90
2018-03-11T11:34:35.486Z,4.03
2018-03-11T11:37:01.738Z,3.47
2018-03-11T11:39:27.990Z,3.00
2018-03-11T11:41:54.189Z,2.30
2018-03-11T11:44:21.218Z,4.60
2018-03-11T11:46:47.476Z,2.80
2018-03-11T11:49:13.778Z,3.27
2018-03-11T11:51:44.934Z,2.80
2018-03-11T11:54:11.199Z,2.77
2018-03-11T11:56:37.632Z,2.63
2018-03-11T11:59:03.856Z,2.70
2018-03-11T12:01:30.076Z,2.63
2018-03-11T12:03:56.320Z,2.80
2018-03-11T12:06:25.858Z,2.40
2018-03-11T12:08:52.088Z,3.07
2018-03-11T12:11:18.305Z,2.80
2018-03-11T12:13:45.294Z,3.30
2018-03-11T12:16:11.536Z,3.90
2018-03-11T12:18:37.765Z,3.43
2018-03-11T12:21:04.053Z,2.80
2018-03-11T12:23:30.270Z,2.60
2018-03-11T12:25:58.669Z,2.70
2018-03-11T12:28:25.006Z,2.97
2018-03-11T12:30:51.233Z,2.47
2018-03-11T12:33:17.474Z,2.80
2018-03-11T12:35:44.445Z,2.80
2018-03-11T12:38:10.705Z,2.60
2018-03-11T12:40:36.947Z,3.20
2018-03-11T12:43:03.202Z,2.50
2018-03-11T12:45:32.965Z,2.73
2018-03-11T12:48:00.318Z,2.60
2018-03-11T12:50:26.558Z,2.63
2018-03-11T12:52:52.867Z,2.50
2018-03-11T12:55:19.083Z,2.40
2018-03-11T12:57:45.301Z,2.37
2018-03-11T13:00:11.574Z,2.10
2018-03-11T13:02:38.258Z,2.70
2018-03-11T13:05:06.122Z,2.60
2018-03-11T13:07:32.425Z,2.93
2018-03-11T13:09:59.489Z,1.97
2018-03-11T13:12:25.691Z,2.43
2018-03-11T13:14:52.108Z,2.10
2018-03-11T13:17:22.178Z,1.83
2018-03-11T13:19:48.977Z,1.73
2018-03-11T13:22:15.030Z,1.53
2018-03-11T13:24:41.138Z,1.60
2018-03-11T13:27:07.194Z,1.40
2018-03-11T13:29:33.249Z,2.90
2018-03-11T13:32:11.691Z,2.73
2018-03-11T13:34:37.736Z,1.70
2018-03-11T13:37:03.790Z,2.33
2018-03-11T13:39:46.205Z,1.50
2018-03-11T13:42:12.986Z,1.30
2018-03-11T13:44:39.093Z,1.30
2018-03-11T13:47:07.919Z,1.83
2018-03-11T13:49:34.030Z,3.07
2018-03-11T13:52:14.781Z,2.83
2018-03-11T13:54:40.924Z,2.77
2018-03-11T14:00:08.185Z,2.20
2018-03-11T14:02:34.436Z,1.53
2018-03-11T14:05:04.338Z,1.30
2018-03-11T14:07:31.138Z,2.23
2018-03-11T14:09:57.191Z,1.90
2018-03-11T14:12:23.275Z,2.30
2018-03-11T14:14:49.275Z,2.43
2018-03-11T14:17:15.314Z,1.50
2018-03-11T14:19:41.370Z,1.63
2018-03-11T14:22:10.798Z,1.50
2018-03-11T14:24:37.820Z,2.53
2018-03-11T14:27:04.065Z,1.40
2018-03-11T14:29:30.317Z,1.70
2018-03-11T14:31:56.547Z,1.67
2018-03-11T14:34:22.794Z,2.00
2018-03-11T14:36:51.315Z,1.30
2018-03-11T14:39:18.741Z,1.33
2018-03-11T14:41:45.002Z,3.43
2018-03-11T14:44:11.260Z,1.47
2018-03-11T14:46:37.517Z,1.80
2018-03-11T14:49:03.783Z,3.03
2018-03-11T14:51:30.157Z,1.63
2018-03-11T14:53:59.231Z,2.73
2018-03-11T14:56:27.879Z,1.97
2018-03-11T14:58:54.098Z,1.33
2018-03-11T15:01:20.372Z,2.80
2018-03-11T15:03:46.630Z,1.53
2018-03-11T15:06:12.882Z,1.60
2018-03-11T15:08:41.199Z,1.40
2018-03-11T15:11:07.923Z,1.63
2018-03-11T15:13:36.776Z,1.70
2018-03-11T15:16:03.062Z,1.50
2018-03-11T15:18:30.051Z,1.57
2018-03-11T15:20:57.172Z,1.73
2018-03-11T15:23:23.413Z,1.93
2018-03-11T15:25:49.622Z,1.53
2018-03-11T15:28:15.841Z,1.97
2018-03-11T15:30:42.104Z,1.33
2018-03-11T15:33:10.568Z,1.93
2018-03-11T15:35:36.917Z,2.20
2018-03-11T15:38:03.931Z,1.63
2018-03-11T15:40:30.194Z,1.80
2018-03-11T15:42:56.428Z,1.80
2018-03-11T15:45:22.627Z,1.90
2018-03-11T15:47:49.009Z,2.20
2018-03-11T15:50:15.246Z,1.70
2018-03-11T15:52:41.514Z,2.00
2018-03-11T15:55:08.503Z,2.03
2018-03-11T15:57:34.815Z,3.77
2018-03-11T16:00:01.060Z,1.97
2018-03-11T16:02:28.062Z,2.00
2018-03-11T16:04:54.257Z,1.70
2018-03-11T16:07:20.541Z,2.13
2018-03-11T16:09:46.814Z,3.40
2018-03-11T16:12:13.343Z,1.70
2018-03-11T16:14:40.160Z,5.60
2018-03-11T16:17:07.341Z,1.70
2018-03-11T16:19:35.929Z,1.97
2018-03-11T16:22:02.213Z,2.33
2018-03-11T16:24:29.208Z,2.87
2018-03-11T16:26:56.958Z,2.10
2018-03-11T16:29:23.398Z,2.20
2018-03-11T16:31:49.868Z,1.90
2018-03-11T16:34:16.917Z,1.90
2018-03-11T16:36:44.035Z,2.03
2018-03-11T16:39:12.308Z,1.80
2018-03-11T16:41:39.161Z,3.27
2018-03-11T16:44:05.477Z,2.87
2018-03-11T16:46:31.806Z,4.83
2018-03-11T16:49:01.654Z,2.47
2018-03-11T16:51:27.855Z,3.23
2018-03-11T16:53:54.070Z,1.97
2018-03-11T16:56:21.099Z,2.60
2018-03-11T16:58:48.150Z,2.20
2018-03-11T17:01:18.238Z,2.13
2018-03-11T17:03:45.255Z,6.53
2018-03-11T17:06:11.482Z,2.60
2018-03-11T17:08:38.684Z,1.73
2018-03-11T17:11:05.704Z,2.30
2018-03-11T17:13:32.007Z,2.17
2018-03-11T17:15:58.324Z,2.30
2018-03-11T17:18:24.620Z,2.70
2018-03-11T17:20:54.941Z,2.47
2018-03-11T17:23:21.160Z,2.73
2018-03-11T17:25:47.500Z,2.50
2018-03-11T17:28:13.727Z,6.10
2018-03-11T17:30:42.042Z,5.83
2018-03-11T17:33:08.266Z,5.53
2018-03-11T17:35:34.541Z,5.40
2018-03-11T17:38:00.826Z,5.70
2018-03-11T17:40:27.197Z,5.27
2018-03-11T17:42:53.418Z,3.50
2018-03-11T17:48:49.987Z,3.00
2018-03-11T17:51:16.268Z,3.10
2018-03-11T17:53:42.310Z,3.27
2018-03-11T17:56:08.357Z,3.57
2018-03-11T17:58:34.398Z,4.57
2018-03-11T18:01:00.536Z,3.67
2018-03-11T18:03:26.583Z,4.33
2018-03-11T18:05:53.363Z,4.97
2018-03-11T18:08:19.393Z,4.30
2018-03-11T18:10:46.556Z,4.10
2018-03-11T18:13:13.315Z,3.50
2018-03-11T18:15:40.070Z,5.37
2018-03-11T18:18:06.391Z,5.63
2018-03-11T18:20:33.183Z,3.83
2018-03-11T18:22:59.262Z,5.10
2018-03-11T18:25:25.313Z,3.70
2018-03-11T18:27:52.094Z,4.30
2018-03-11T18:30:18.143Z,4.40
2018-03-11T18:32:44.166Z,4.80
2018-03-11T18:35:10.197Z,4.73
2018-03-11T18:37:36.254Z,4.87
2018-03-11T18:40:04.041Z,5.30
2018-03-11T18:42:30.834Z,8.33
2018-03-11T18:44:56.869Z,6.77
2018-03-11T18:47:22.929Z,6.73
2018-03-11T18:49:49.769Z,7.50
2018-03-11T18:52:15.804Z,7.20
2018-03-11T18:54:41.845Z,7.10
2018-03-11T18:57:08.687Z,7.47
2018-03-11T18:59:34.779Z,6.70
2018-03-11T19:02:00.834Z,7.67
2018-03-11T19:04:26.900Z,7.27
2018-03-11T19:06:52.939Z,8.13
2018-03-11T19:09:19.032Z,9.13
2018-03-11T19:11:45.076Z,9.27
2018-03-11T19:14:11.132Z,9.20
2018-03-11T19:16:37.168Z,8.73
2018-03-11T19:19:03.213Z,10.13
2018-03-11T19:21:29.358Z,9.27
2018-03-11T19:23:56.674Z,9.63
2018-03-11T19:26:22.710Z,9.50
2018-03-11T19:28:48.749Z,9.40
2018-03-11T19:31:14.818Z,10.13
2018-03-11T19:33:40.860Z,10.20
2018-03-11T19:36:06.900Z,15.93
2018-03-11T19:38:33.680Z,15.23
2018-03-11T19:41:00.453Z,12.10
2018-03-11T19:43:26.535Z,12.43
2018-03-11T19:45:52.585Z,13.03
2018-03-11T19:48:18.622Z,14.40
2018-03-11T19:50:44.685Z,11.63
2018-03-11T19:53:10.727Z,11.90
2018-03-11T19:55:36.777Z,16.03
2018-03-11T19:58:02.832Z,17.47
2018-03-11T20:00:28.961Z,11.43
2018-03-11T20:02:54.990Z,11.20
2018-03-11T20:05:21.077Z,8.30
2018-03-11T20:07:47.149Z,7.60
2018-03-11T20:10:14.542Z,7.13
2018-03-11T20:12:43.250Z,7.30
2018-03-11T20:15:09.292Z,6.87
2018-03-11T20:17:35.457Z,6.93
2018-03-11T20:20:01.523Z,7.07
2018-03-11T20:22:27.652Z,6.43
2018-03-11T20:24:54.412Z,6.33
2018-03-11T20:27:21.181Z,7.67
2018-03-11T20:29:47.246Z,5.73
2018-03-11T20:32:13.288Z,5.93
2018-03-11T20:34:39.410Z,6.73
2018-03-11T20:37:05.486Z,5.97
2018-03-11T20:39:31.520Z,6.27
2018-03-11T20:41:57.558Z,6.57
2018-03-11T20:44:23.609Z,7.00
2018-03-11T20:46:49.643Z,6.40
2018-03-11T20:49:15.785Z,7.13
2018-03-11T20:51:41.846Z,6.80
2018-03-11T20:54:08.677Z,6.27
2018-03-11T20:56:35.459Z,5.60
2018-03-11T20:59:01.512Z,7.20
2018-03-11T21:01:27.549Z,6.47
2018-03-11T21:03:53.585Z,6.53
2018-03-11T21:06:19.614Z,6.90
2018-03-11T21:08:45.682Z,6.13
2018-03-11T21:11:11.701Z,6.03
2018-03-11T21:13:37.771Z,5.07
2018-03-11T21:16:04.006Z,4.90
2018-03-11T21:18:30.238Z,5.80
2018-03-11T21:20:56.560Z,4.93
2018-03-11T21:23:22.793Z,7.30
2018-03-11T21:25:49.030Z,5.60
2018-03-11T21:28:15.268Z,7.00
2018-03-11T21:30:41.519Z,7.87
2018-03-11T21:33:07.833Z,5.80
2018-03-11T21:35:34.884Z,5.10
2018-03-11T21:38:01.125Z,6.70
2018-03-11T21:40:27.526Z,7.00
2018-03-11T21:42:53.769Z,5.03
2018-03-11T21:45:20.004Z,5.47
2018-03-11T21:47:46.248Z,5.90
2018-03-11T21:50:12.484Z,6.80
2018-03-11T21:52:38.725Z,7.33
2018-03-11T21:55:05.044Z,6.83
2018-03-11T21:57:31.302Z,5.07
2018-03-11T21:59:58.043Z,5.07
2018-03-11T22:02:24.289Z,4.77
2018-03-11T22:04:50.577Z,4.87
2018-03-11T22:07:16.804Z,7.57
2018-03-11T22:09:43.246Z,7.70
2018-03-11T22:12:09.501Z,6.80
2018-03-11T22:14:35.746Z,7.40
2018-03-11T22:17:02.000Z,8.00
2018-03-11T22:19:28.237Z,6.83
2018-03-11T22:21:54.581Z,10.30
2018-03-11T22:24:20.802Z,8.53
2018-03-11T22:26:47.017Z,7.37
2018-03-11T22:29:13.238Z,9.33
2018-03-11T22:31:39.465Z,8.67
2018-03-11T22:34:06.421Z,7.47
2018-03-11T22:36:34.130Z,7.80
2018-03-11T22:39:01.801Z,7.20
2018-03-11T22:41:28.045Z,9.30
2018-03-11T22:43:54.290Z,9.60
2018-03-11T22:46:20.522Z,6.13
2018-03-11T22:48:46.743Z,7.23
2018-03-11T22:51:13.002Z,6.43
2018-03-11T22:53:40.266Z,8.57
2018-03-11T22:56:06.506Z,6.23
2018-03-11T22:58:32.790Z,7.07
2018-03-11T23:00:59.060Z,6.53
2018-03-11T23:03:26.067Z,7.20
2018-03-11T23:05:52.317Z,6.80
2018-03-11T23:08:18.617Z,7.00
2018-03-11T23:10:44.806Z,6.80
2018-03-11T23:13:11.206Z,7.53
2018-03-11T23:15:37.912Z,7.23
2018-03-11T23:18:04.305Z,7.93
2018-03-11T23:20:30.529Z,5.90
2018-03-11T23:22:56.766Z,6.90
2018-03-11T23:25:24.052Z,6.43
2018-03-11T23:27:50.263Z,8.33
2018-03-11T23:30:17.361Z,5.93
2018-03-11T23:32:43.646Z,6.97
2018-03-11T23:35:09.886Z,7.07
2018-03-11T23:37:36.840Z,6.80
2018-03-11T23:40:03.105Z,6.63
2018-03-11T23:42:30.085Z,7.20
2018-03-11T23:44:56.332Z,12.93
2018-03-11T23:47:23.309Z,8.53
2018-03-11T23:49:49.542Z,8.57
2018-03-11T23:52:15.762Z,8.10
2018-03-11T23:54:43.413Z,10.40
2018-03-11T23:57:09.638Z,9.70
2018-03-11T23:59:35.897Z,9.80
